createdAt,value
2022-09-01T00:00:53.881Z,18.23
2022-09-01T00:01:55.688Z,18.72
2022-09-01T00:02:57.894Z,19.10
2022-09-01T00:04:03.274Z,19.40
2022-09-01T00:05:07.493Z,19.66
2022-09-01T00:06:10.278Z,19.73
2022-09-01T00:07:14.736Z,19.49
2022-09-01T00:08:18.692Z,19.08
2022-09-01T00:09:23.370Z,18.62
2022-09-01T00:10:25.049Z,18.18
2022-09-01T00:11:29.181Z,17.83
2022-09-01T00:12:31.062Z,17.52
2022-09-01T00:13:33.979Z,17.26
2022-09-01T00:14:41.644Z,17.03
2022-09-01T00:15:44.090Z,16.92
2022-09-01T00:16:45.912Z,17.20
2022-09-01T00:17:51.844Z,17.71
2022-09-01T00:18:54.911Z,18.20
2022-09-01T00:19:56.622Z,18.67
2022-09-01T00:20:59.596Z,19.03
2022-09-01T00:22:02.545Z,19.31
2022-09-01T00:23:04.491Z,19.56
2022-09-01T00:24:06.809Z,19.63
2022-09-01T00:25:09.256Z,19.39
2022-09-01T00:26:11.798Z,18.98
2022-09-01T00:27:13.517Z,18.53
2022-09-01T00:28:15.238Z,18.11
2022-09-01T00:29:17.160Z,17.76
2022-09-01T00:30:19.821Z,17.44
2022-09-01T00:31:22.737Z,17.16
2022-09-01T00:32:25.343Z,16.90
2022-09-01T00:33:27.544Z,16.86
2022-09-01T00:34:29.190Z,17.16
2022-09-01T00:35:30.866Z,17.62
2022-09-01T00:36:38.517Z,18.14
2022-09-01T00:37:40.321Z,18.57
2022-09-01T00:38:43.155Z,18.91
2022-09-01T00:39:44.862Z,19.19
2022-09-01T00:40:47.039Z,19.40
2022-09-01T00:41:50.747Z,19.53
2022-09-01T00:42:53.778Z,19.36
2022-09-01T00:43:59.296Z,18.96
2022-09-01T00:45:00.935Z,18.49
2022-09-01T00:46:05.881Z,18.07
2022-09-01T00:47:10.882Z,17.69
2022-09-01T00:48:15.060Z,17.38
2022-09-01T00:49:38.757Z,17.09
2022-09-01T00:50:42.132Z,16.76
2022-09-01T00:51:49.125Z,16.71
2022-09-01T00:52:55.562Z,17.05
2022-09-01T00:54:00.136Z,17.57
2022-09-01T00:55:13.067Z,18.07
2022-09-01T00:56:15.820Z,18.59
2022-09-01T00:57:17.846Z,18.93
2022-09-01T00:58:21.230Z,19.20
2022-09-01T00:59:26.288Z,19.30
2022-09-01T01:00:31.019Z,19.06
2022-09-01T01:01:35.467Z,18.65
2022-09-01T01:02:39.000Z,18.19
2022-09-01T01:03:42.538Z,17.80
2022-09-01T01:04:44.304Z,17.46
2022-09-01T01:05:55.703Z,17.18
2022-09-01T01:07:02.273Z,16.90
2022-09-01T01:08:05.010Z,16.75
2022-09-01T01:09:06.805Z,16.95
2022-09-01T01:10:11.961Z,17.42
2022-09-01T01:11:18.752Z,17.95
2022-09-01T01:12:21.651Z,18.47
2022-09-01T01:13:25.991Z,18.87
2022-09-01T01:14:31.887Z,19.19
2022-09-01T01:15:33.847Z,19.34
2022-09-01T01:16:35.917Z,19.14
2022-09-01T01:17:38.325Z,18.77
2022-09-01T01:18:39.998Z,18.32
2022-09-01T01:20:13.883Z,17.92
2022-09-01T01:21:38.875Z,17.41
2022-09-01T01:23:05.687Z,17.03
2022-09-01T01:24:34.714Z,16.67
2022-09-01T01:25:44.675Z,16.46
2022-09-01T01:26:48.151Z,16.76
2022-09-01T01:27:50.935Z,17.25
2022-09-01T01:28:54.353Z,17.74
2022-09-01T01:29:57.665Z,18.17
2022-09-01T01:31:06.005Z,18.55
2022-09-01T01:32:13.112Z,18.88
2022-09-01T01:33:15.368Z,19.12
2022-09-01T01:34:18.458Z,19.06
2022-09-01T01:35:21.840Z,18.72
2022-09-01T01:36:32.617Z,18.27
2022-09-01T01:37:36.302Z,17.79
2022-09-01T01:38:38.452Z,17.43
2022-09-01T01:39:43.851Z,17.12
2022-09-01T01:40:45.836Z,16.83
2022-09-01T01:41:50.713Z,16.62
2022-09-01T01:42:54.313Z,16.68
2022-09-01T01:44:04.367Z,17.09
2022-09-01T01:45:08.146Z,17.67
2022-09-01T01:46:12.002Z,18.15
2022-09-01T01:47:14.290Z,18.59
2022-09-01T01:48:22.739Z,18.93
2022-09-01T01:49:29.225Z,19.20
2022-09-01T01:50:35.931Z,19.14
2022-09-01T01:51:38.101Z,18.78
2022-09-01T01:52:40.369Z,18.37
2022-09-01T01:53:52.638Z,17.94
2022-09-01T01:54:54.679Z,17.59
2022-09-01T01:55:58.414Z,17.28
2022-09-01T01:57:04.483Z,17.00
2022-09-01T01:58:09.836Z,16.78
2022-09-01T01:59:16.499Z,16.77
2022-09-01T02:00:27.093Z,17.16
2022-09-01T02:01:32.142Z,17.74
2022-09-01T02:02:34.187Z,18.21
2022-09-01T02:03:38.477Z,18.63
2022-09-01T02:04:41.626Z,18.99
2022-09-01T02:05:44.282Z,19.22
2022-09-01T02:06:48.265Z,19.16
2022-09-01T02:07:55.938Z,18.81
2022-09-01T02:09:03.727Z,18.33
2022-09-01T02:10:06.178Z,17.92
2022-09-01T02:11:08.886Z,17.58
2022-09-01T02:12:11.058Z,17.28
2022-09-01T02:13:20.876Z,16.99
2022-09-01T02:14:23.472Z,16.73
2022-09-01T02:15:25.533Z,16.57
2022-09-01T02:16:30.236Z,16.74
2022-09-01T02:17:32.052Z,17.21
2022-09-01T02:18:37.943Z,17.72
2022-09-01T02:19:43.265Z,18.20
2022-09-01T02:20:50.308Z,18.62
2022-09-01T02:21:56.051Z,18.93
2022-09-01T02:22:57.734Z,19.05
2022-09-01T02:24:03.626Z,18.86
2022-09-01T02:25:06.653Z,18.41
2022-09-01T02:26:16.685Z,17.96
2022-09-01T02:27:23.273Z,17.51
2022-09-01T02:28:28.505Z,17.12
2022-09-01T02:29:30.352Z,16.79
2022-09-01T02:30:37.775Z,16.50
2022-09-01T02:31:39.866Z,16.33
2022-09-01T02:32:41.856Z,16.51
2022-09-01T02:33:47.017Z,16.93
2022-09-01T02:34:53.578Z,17.42
2022-09-01T02:36:00.883Z,17.85
2022-09-01T02:37:03.270Z,18.22
2022-09-01T02:38:05.317Z,18.51
2022-09-01T02:39:08.137Z,18.71
2022-09-01T02:40:10.550Z,18.68
2022-09-01T02:41:14.288Z,18.32
2022-09-01T02:42:16.301Z,17.88
2022-09-01T02:43:20.349Z,17.45
2022-09-01T02:44:23.095Z,17.06
2022-09-01T02:45:24.848Z,16.73
2022-09-01T02:46:26.740Z,16.44
2022-09-01T02:47:28.553Z,16.19
2022-09-01T02:48:32.949Z,16.11
2022-09-01T02:49:36.026Z,16.40
2022-09-01T02:50:39.681Z,16.89
2022-09-01T02:51:47.238Z,17.39
2022-09-01T02:52:50.985Z,17.84
2022-09-01T02:53:53.424Z,18.20
2022-09-01T02:54:55.550Z,18.50
2022-09-01T02:55:59.494Z,18.54
2022-09-01T02:57:01.426Z,18.21
2022-09-01T02:58:04.330Z,17.76
2022-09-01T02:59:06.105Z,17.30
2022-09-01T03:00:20.750Z,16.90
2022-09-01T03:01:31.471Z,16.47
2022-09-01T03:02:35.896Z,16.11
2022-09-01T03:03:38.935Z,15.86
2022-09-01T03:04:41.181Z,15.94
2022-09-01T03:05:43.903Z,16.34
2022-09-01T03:06:46.826Z,16.82
2022-09-01T03:07:54.081Z,17.29
2022-09-01T03:09:00.159Z,17.69
2022-09-01T03:10:03.336Z,18.00
2022-09-01T03:11:13.289Z,18.25
2022-09-01T03:12:15.402Z,18.24
2022-09-01T03:13:21.875Z,17.90
2022-09-01T03:14:24.324Z,17.42
2022-09-01T03:15:27.394Z,16.97
2022-09-01T03:16:33.448Z,16.56
2022-09-01T03:17:35.333Z,16.20
2022-09-01T03:18:38.427Z,15.90
2022-09-01T03:19:44.290Z,15.63
2022-09-01T03:20:48.357Z,15.65
2022-09-01T03:21:50.137Z,16.04
2022-09-01T03:22:57.936Z,16.58
2022-09-01T03:24:02.002Z,17.06
2022-09-01T03:25:04.595Z,17.47
2022-09-01T03:26:06.284Z,17.80
2022-09-01T03:27:08.916Z,18.08
2022-09-01T03:28:13.066Z,18.20
2022-09-01T03:29:15.395Z,17.93
2022-09-01T03:30:17.526Z,17.48
2022-09-01T03:31:21.565Z,17.01
2022-09-01T03:32:24.650Z,16.56
2022-09-01T03:33:28.638Z,16.18
2022-09-01T03:34:34.377Z,15.83
2022-09-01T03:35:36.787Z,15.54
2022-09-01T03:36:39.829Z,15.49
2022-09-01T03:37:44.326Z,15.83
2022-09-01T03:38:51.376Z,16.32
2022-09-01T03:39:56.427Z,16.82
2022-09-01T03:41:04.440Z,17.24
2022-09-01T03:42:09.032Z,17.58
2022-09-01T03:43:11.977Z,17.82
2022-09-01T03:44:16.214Z,18.00
2022-09-01T03:45:20.392Z,17.91
2022-09-01T03:46:24.323Z,17.54
2022-09-01T03:47:27.283Z,17.06
2022-09-01T03:48:32.210Z,16.60
2022-09-01T03:49:34.066Z,16.17
2022-09-01T03:50:47.357Z,15.82
2022-09-01T03:51:49.260Z,15.44
2022-09-01T03:52:58.695Z,15.19
2022-09-01T03:54:00.736Z,15.30
2022-09-01T03:55:02.471Z,15.70
2022-09-01T03:56:05.477Z,16.19
2022-09-01T03:57:09.944Z,16.66
2022-09-01T03:58:18.953Z,17.04
2022-09-01T03:59:22.617Z,17.38
2022-09-01T04:00:29.797Z,17.63
2022-09-01T04:01:37.893Z,17.80
2022-09-01T04:02:40.017Z,17.61
2022-09-01T04:03:42.664Z,17.19
2022-09-01T04:04:44.376Z,16.72
2022-09-01T04:05:46.197Z,16.28
2022-09-01T04:06:48.058Z,15.90
2022-09-01T04:07:50.310Z,15.55
2022-09-01T04:08:57.768Z,15.24
2022-09-01T04:09:59.484Z,15.17
2022-09-01T04:11:10.612Z,15.49
2022-09-01T04:12:15.724Z,16.01
2022-09-01T04:13:32.277Z,16.51
2022-09-01T04:14:34.942Z,16.96
2022-09-01T04:15:38.489Z,17.25
2022-09-01T04:16:59.201Z,17.48
2022-09-01T04:18:10.582Z,17.73
2022-09-01T04:19:25.590Z,17.86
2022-09-01T04:20:28.587Z,17.57
2022-09-01T04:21:31.951Z,17.12
2022-09-01T04:22:35.414Z,16.63
2022-09-01T04:23:37.286Z,16.18
2022-09-01T04:24:45.419Z,15.79
2022-09-01T04:25:50.377Z,15.44
2022-09-01T04:26:54.534Z,15.26
2022-09-01T04:27:57.091Z,15.52
2022-09-01T04:28:59.180Z,15.97
2022-09-01T04:30:01.466Z,16.44
2022-09-01T04:31:09.197Z,16.86
2022-09-01T04:32:13.100Z,17.24
2022-09-01T04:33:18.547Z,17.54
2022-09-01T04:34:22.705Z,17.78
2022-09-01T04:35:32.964Z,17.97
2022-09-01T04:36:43.543Z,18.04
2022-09-01T04:37:46.173Z,17.76
2022-09-01T04:38:54.491Z,17.31
2022-09-01T04:39:57.668Z,16.79
2022-09-01T04:41:06.515Z,16.35
2022-09-01T04:42:09.246Z,15.95
2022-09-01T04:43:11.336Z,15.64
2022-09-01T04:44:19.195Z,15.57
2022-09-01T04:45:24.900Z,15.91
2022-09-01T04:46:31.347Z,16.42
2022-09-01T04:47:36.253Z,16.90
2022-09-01T04:48:46.000Z,17.32
2022-09-01T04:49:49.192Z,17.63
2022-09-01T04:50:52.054Z,17.87
2022-09-01T04:52:00.653Z,18.09
2022-09-01T04:53:06.125Z,18.23
2022-09-01T04:54:14.287Z,18.26
2022-09-01T04:55:17.852Z,17.96
2022-09-01T04:56:22.943Z,17.52
2022-09-01T04:57:50.058Z,16.86
2022-09-01T04:58:56.475Z,16.44
2022-09-01T04:59:58.521Z,16.07
2022-09-01T05:01:06.332Z,15.76
2022-09-01T05:02:09.525Z,15.72
2022-09-01T05:03:11.542Z,16.07
2022-09-01T05:04:34.302Z,16.67
2022-09-01T05:05:45.143Z,17.12
2022-09-01T05:06:50.021Z,17.54
2022-09-01T05:07:55.308Z,17.83
2022-09-01T05:08:57.909Z,18.07
2022-09-01T05:10:19.917Z,18.32
2022-09-01T05:12:15.729Z,18.15
2022-09-01T05:13:23.495Z,17.63
2022-09-01T05:14:26.032Z,17.15
2022-09-01T05:15:29.699Z,16.73
2022-09-01T05:16:32.445Z,16.37
2022-09-01T05:17:38.556Z,16.05
2022-09-01T05:18:47.481Z,15.77
2022-09-01T05:19:50.576Z,15.64
2022-09-01T05:20:53.263Z,15.91
2022-09-01T05:21:58.321Z,16.39
2022-09-01T05:23:00.518Z,16.87
2022-09-01T05:24:05.025Z,17.29
2022-09-01T05:25:13.291Z,17.64
2022-09-01T05:26:22.190Z,17.95
2022-09-01T05:27:24.284Z,18.18
2022-09-01T05:28:27.071Z,18.36
2022-09-01T05:29:29.651Z,18.34
2022-09-01T05:30:36.844Z,18.04
2022-09-01T05:31:41.289Z,17.57
2022-09-01T05:32:43.622Z,17.12
2022-09-01T05:33:48.289Z,16.72
2022-09-01T05:34:51.826Z,16.36
2022-09-01T05:36:01.169Z,16.07
2022-09-01T05:37:06.414Z,15.79
2022-09-01T05:38:11.002Z,15.83
2022-09-01T05:39:12.937Z,16.24
2022-09-01T05:40:16.346Z,16.73
2022-09-01T05:41:21.041Z,17.23
2022-09-01T05:42:22.988Z,17.68
2022-09-01T05:43:27.802Z,18.01
2022-09-01T05:44:29.677Z,18.28
2022-09-01T05:45:44.916Z,18.50
2022-09-01T05:46:55.808Z,18.42
2022-09-01T05:47:59.714Z,18.03
2022-09-01T05:49:02.616Z,17.61
2022-09-01T05:50:11.016Z,17.21
2022-09-01T05:51:42.660Z,16.83
2022-09-01T05:52:44.835Z,16.42
2022-09-01T05:53:51.349Z,16.17
2022-09-01T05:54:55.454Z,15.93
2022-09-01T05:55:57.457Z,15.82
2022-09-01T05:57:17.530Z,16.06
2022-09-01T05:58:21.505Z,16.75
2022-09-01T05:59:24.868Z,17.31
2022-09-01T06:00:34.712Z,17.82
2022-09-01T06:01:41.157Z,18.23
2022-09-01T06:02:43.400Z,18.56
2022-09-01T06:03:55.653Z,18.79
2022-09-01T06:05:00.271Z,18.71
2022-09-01T06:06:09.249Z,18.33
2022-09-01T06:07:16.639Z,17.87
2022-09-01T06:08:28.951Z,17.40
2022-09-01T06:09:30.779Z,17.05
2022-09-01T06:10:35.504Z,16.78
2022-09-01T06:11:38.065Z,16.54
2022-09-01T06:12:40.739Z,16.31
2022-09-01T06:13:42.625Z,16.12
2022-09-01T06:14:46.185Z,16.09
2022-09-01T06:15:51.026Z,16.42
2022-09-01T06:16:54.197Z,16.95
2022-09-01T06:17:57.408Z,17.49
2022-09-01T06:18:59.549Z,17.98
2022-09-01T06:20:01.991Z,18.39
2022-09-01T06:21:08.356Z,18.72
2022-09-01T06:22:11.237Z,18.83
2022-09-01T06:23:15.275Z,18.61
2022-09-01T06:24:18.103Z,18.20
2022-09-01T06:25:21.322Z,17.82
2022-09-01T06:26:27.646Z,17.47
2022-09-01T06:27:30.082Z,17.14
2022-09-01T06:28:31.893Z,16.85
2022-09-01T06:29:34.186Z,16.61
2022-09-01T06:30:36.497Z,16.41
2022-09-01T06:31:43.363Z,16.21
2022-09-01T06:32:45.549Z,16.14
2022-09-01T06:33:48.344Z,16.41
2022-09-01T06:34:51.252Z,16.93
2022-09-01T06:35:53.998Z,17.49
2022-09-01T06:36:56.319Z,17.97
2022-09-01T06:38:02.140Z,18.40
2022-09-01T06:39:26.512Z,18.79
2022-09-01T06:40:29.085Z,18.76
2022-09-01T06:41:31.531Z,18.44
2022-09-01T06:42:35.267Z,18.06
2022-09-01T06:43:37.127Z,17.72
2022-09-01T06:44:41.984Z,17.43
2022-09-01T06:45:54.194Z,17.18
2022-09-01T06:46:57.194Z,16.94
2022-09-01T06:48:01.285Z,16.76
2022-09-01T06:49:03.941Z,16.60
2022-09-01T06:50:08.573Z,16.62
2022-09-01T06:51:16.117Z,17.04
2022-09-01T06:52:21.235Z,17.66
2022-09-01T06:54:46.105Z,18.78
2022-09-01T06:55:50.094Z,19.04
2022-09-01T06:56:53.527Z,18.94
2022-09-01T06:58:03.937Z,18.65
2022-09-01T06:59:07.978Z,18.25
2022-09-01T07:00:20.872Z,17.94
2022-09-01T07:01:24.307Z,17.63
2022-09-01T07:02:27.320Z,17.43
2022-09-01T07:04:20.219Z,17.09
2022-09-01T07:07:01.812Z,16.74
2022-09-01T07:10:18.578Z,16.56
2022-09-01T07:13:07.362Z,17.93
2022-09-01T07:14:16.674Z,18.62
2022-09-01T07:16:51.789Z,19.20
2022-09-01T07:17:58.281Z,18.88
2022-09-01T07:19:02.203Z,18.56
2022-09-01T07:21:40.951Z,17.88
2022-09-01T07:23:14.183Z,17.65
2022-09-01T07:24:10.419Z,17.45
2022-09-01T07:25:14.309Z,17.30
2022-09-01T07:26:47.277Z,17.13
2022-09-01T07:27:50.550Z,17.01
2022-09-01T07:29:00.939Z,16.94
2022-09-01T07:30:03.803Z,16.87
2022-09-01T07:32:47.539Z,17.15
2022-09-01T07:33:54.319Z,17.90
2022-09-01T07:34:56.808Z,18.60
2022-09-01T07:42:56.886Z,19.20
2022-09-01T07:42:57.573Z,18.19
2022-09-01T07:43:37.601Z,18.05
2022-09-01T07:45:35.211Z,17.79
2022-09-01T07:46:40.409Z,17.66
2022-09-01T07:47:53.580Z,17.55
2022-09-01T07:49:29.635Z,17.43
2022-09-01T07:51:44.129Z,17.20
2022-09-01T07:52:49.579Z,17.13
2022-09-01T07:53:51.361Z,17.06
2022-09-01T07:54:53.169Z,17.02
2022-09-01T07:55:56.354Z,16.99
2022-09-01T07:56:58.206Z,16.95
2022-09-01T07:57:59.954Z,16.95
2022-09-01T07:59:02.248Z,16.93
2022-09-01T08:00:06.526Z,16.91
2022-09-01T08:01:24.406Z,16.89
2022-09-01T08:02:28.002Z,16.88
2022-09-01T08:03:31.062Z,16.86
2022-09-01T08:04:34.517Z,16.87
2022-09-01T08:05:36.442Z,16.88
2022-09-01T08:06:38.750Z,16.87
2022-09-01T08:07:57.653Z,16.88
2022-09-01T08:09:12.259Z,16.98
2022-09-01T08:10:33.593Z,17.66
2022-09-01T08:11:58.572Z,18.35
2022-09-01T08:12:58.341Z,19.07
2022-09-01T08:14:01.293Z,19.19
2022-09-01T08:15:13.874Z,19.07
2022-09-01T08:16:39.319Z,18.77
2022-09-01T08:17:52.184Z,18.50
2022-09-01T08:18:57.079Z,18.27
2022-09-01T08:20:03.312Z,18.11
2022-09-01T08:21:27.013Z,17.95
2022-09-01T08:22:38.090Z,17.85
2022-09-01T08:23:54.898Z,17.78
2022-09-01T08:24:57.094Z,17.73
2022-09-01T08:25:58.935Z,17.69
2022-09-01T08:27:00.594Z,17.68
2022-09-01T08:28:06.894Z,17.66
2022-09-01T08:29:09.541Z,17.67
2022-09-01T08:30:15.845Z,17.70
2022-09-01T08:31:20.284Z,17.71
2022-09-01T08:32:22.972Z,17.71
2022-09-01T08:33:26.066Z,17.71
2022-09-01T08:34:28.078Z,17.72
2022-09-01T08:35:29.801Z,17.73
2022-09-01T08:36:35.413Z,17.73
2022-09-01T08:37:38.404Z,17.71
2022-09-01T08:38:41.435Z,17.68
2022-09-01T08:39:43.683Z,17.66
2022-09-01T08:40:56.370Z,17.66
2022-09-01T08:42:20.182Z,17.69
2022-09-01T08:43:36.975Z,17.72
2022-09-01T08:44:55.170Z,17.75
2022-09-01T08:46:04.041Z,17.81
2022-09-01T08:47:15.327Z,17.84
2022-09-01T08:49:51.350Z,18.00
2022-09-01T08:51:35.162Z,18.05
2022-09-01T08:52:44.698Z,18.14
2022-09-01T08:53:59.814Z,18.19
2022-09-01T08:55:31.918Z,18.21
2022-09-01T08:56:37.489Z,18.20
2022-09-01T08:57:44.280Z,18.20
2022-09-01T09:01:04.874Z,18.23
2022-09-01T09:02:33.801Z,18.27
2022-09-01T09:03:54.014Z,18.30
2022-09-01T09:04:58.673Z,18.35
2022-09-01T09:06:41.835Z,18.41
2022-09-01T09:08:17.241Z,18.53
2022-09-01T09:09:19.273Z,18.67
2022-09-01T09:11:01.438Z,18.77
2022-09-01T09:12:10.831Z,18.89
2022-09-01T09:13:40.835Z,18.98
2022-09-01T09:15:06.969Z,19.07
2022-09-01T09:16:26.162Z,19.10
2022-09-01T09:17:37.298Z,19.13
2022-09-01T09:18:55.861Z,19.15
2022-09-01T09:19:58.052Z,19.18
2022-09-01T09:21:27.677Z,19.16
2022-09-01T09:22:29.398Z,19.11
2022-09-01T09:23:39.397Z,19.06
2022-09-01T09:25:08.425Z,19.00
2022-09-01T09:26:10.105Z,18.91
2022-09-01T09:27:30.740Z,18.87
2022-09-01T09:28:32.466Z,18.85
2022-09-01T09:29:34.425Z,18.86
2022-09-01T09:30:38.389Z,18.87
2022-09-01T09:31:49.924Z,18.89
2022-09-01T09:34:39.718Z,19.05
2022-09-01T09:35:44.246Z,19.16
2022-09-01T09:36:53.893Z,19.21
2022-09-01T09:38:29.054Z,19.27
2022-09-01T09:39:31.005Z,19.38
2022-09-01T09:40:47.892Z,19.47
2022-09-01T09:42:12.082Z,19.55
2022-09-01T09:43:16.145Z,19.60
2022-09-01T09:44:29.413Z,19.66
2022-09-01T09:45:41.614Z,19.70
2022-09-01T09:46:47.473Z,19.72
2022-09-01T09:47:49.599Z,19.74
2022-09-01T09:49:15.381Z,19.75
2022-09-01T09:50:17.427Z,19.75
2022-09-01T09:51:22.774Z,19.73
2022-09-01T09:52:24.509Z,19.69
2022-09-01T09:53:29.955Z,19.64
2022-09-01T09:54:33.852Z,19.56
2022-09-01T09:55:35.779Z,19.49
2022-09-01T09:56:37.638Z,19.42
2022-09-01T09:57:41.768Z,19.36
2022-09-01T09:58:46.693Z,19.29
2022-09-01T10:00:00.808Z,19.23
2022-09-01T10:01:05.889Z,19.16
2022-09-01T10:02:33.793Z,19.10
2022-09-01T10:03:45.047Z,19.04
2022-09-01T10:04:46.814Z,19.03
2022-09-01T10:05:52.828Z,19.04
2022-09-01T10:06:55.578Z,19.09
2022-09-01T10:07:58.403Z,19.12
2022-09-01T10:09:08.261Z,19.17
2022-09-01T10:10:40.402Z,19.23
2022-09-01T10:11:48.277Z,19.34
2022-09-01T10:12:56.677Z,19.43
2022-09-01T10:13:58.915Z,19.50
2022-09-01T10:15:07.100Z,19.54
2022-09-01T10:16:26.881Z,19.58
2022-09-01T10:17:35.933Z,19.60
2022-09-01T10:18:41.798Z,19.62
2022-09-01T10:19:54.207Z,19.64
2022-09-01T10:21:04.234Z,19.65
2022-09-01T10:22:08.329Z,19.69
2022-09-01T10:23:15.251Z,19.73
2022-09-01T10:24:32.045Z,19.77
2022-09-01T10:25:35.666Z,19.82
2022-09-01T10:26:41.250Z,19.86
2022-09-01T10:27:51.160Z,19.89
2022-09-01T10:29:01.803Z,19.95
2022-09-01T10:30:19.809Z,20.02
2022-09-01T10:31:22.847Z,20.08
2022-09-01T10:32:50.800Z,20.12
2022-09-01T10:33:58.641Z,20.19
2022-09-01T10:35:03.177Z,20.26
2022-09-01T10:36:07.833Z,20.33
2022-09-01T10:37:15.890Z,20.40
2022-09-01T10:38:23.198Z,20.48
2022-09-01T10:39:30.514Z,20.53
2022-09-01T10:40:49.648Z,20.59
2022-09-01T10:41:59.733Z,20.64
2022-09-01T10:43:26.157Z,20.66
2022-09-01T10:44:58.205Z,20.72
2022-09-01T10:46:06.048Z,20.75
2022-09-01T10:47:14.696Z,20.72
2022-09-01T10:48:30.487Z,20.64
2022-09-01T10:49:32.569Z,20.55
2022-09-01T10:50:35.997Z,20.47
2022-09-01T10:51:50.466Z,20.39
2022-09-01T10:52:57.121Z,20.28
2022-09-01T10:54:03.540Z,20.20
2022-09-01T10:55:23.993Z,20.13
2022-09-01T10:56:44.378Z,20.04
2022-09-01T10:59:29.804Z,19.93
2022-09-01T10:59:43.301Z,19.75
2022-09-01T11:01:10.680Z,19.61
2022-09-01T11:02:28.123Z,19.49
2022-09-01T11:03:54.355Z,19.36
2022-09-01T11:04:58.218Z,19.25
2022-09-01T11:06:12.305Z,19.18
2022-09-01T11:07:44.372Z,19.09
2022-09-01T11:09:03.682Z,18.97
2022-09-01T11:10:37.021Z,18.90
2022-09-01T11:11:51.892Z,18.75
2022-09-01T11:13:10.335Z,18.64
2022-09-01T11:14:23.639Z,18.55
2022-09-01T11:15:39.131Z,18.45
2022-09-01T11:16:46.705Z,18.36
2022-09-01T11:17:52.135Z,18.26
2022-09-01T11:18:55.250Z,18.18
2022-09-01T11:20:20.432Z,18.11
2022-09-01T11:21:33.185Z,18.06
2022-09-01T11:22:46.577Z,18.03
2022-09-01T11:23:48.301Z,17.99
2022-09-01T11:25:11.848Z,17.97
2022-09-01T11:26:32.525Z,17.95
2022-09-01T11:27:49.156Z,17.92
2022-09-01T11:28:51.158Z,17.91
2022-09-01T11:30:09.128Z,17.92
2022-09-01T11:31:20.630Z,17.95
2022-09-01T11:32:27.994Z,17.97
2022-09-01T11:33:29.560Z,18.00
2022-09-01T11:34:31.816Z,18.03
2022-09-01T11:35:33.716Z,18.06
2022-09-01T11:36:48.382Z,18.10
2022-09-01T11:37:55.255Z,18.19
2022-09-01T11:39:17.570Z,18.27
2022-09-01T11:40:29.628Z,18.38
2022-09-01T11:41:40.203Z,18.43
2022-09-01T11:42:46.807Z,18.49
2022-09-01T11:43:54.220Z,18.54
2022-09-01T11:45:04.612Z,18.62
2022-09-01T11:46:25.063Z,18.73
2022-09-01T11:47:55.228Z,18.89
2022-09-01T11:48:59.746Z,19.05
2022-09-01T11:50:34.565Z,19.15
2022-09-01T11:51:47.885Z,19.27
2022-09-01T11:52:57.064Z,19.34
2022-09-01T11:54:00.678Z,19.42
2022-09-01T11:55:04.722Z,19.47
2022-09-01T11:56:20.112Z,19.50
2022-09-01T11:57:31.755Z,19.53
2022-09-01T11:58:39.179Z,19.55
2022-09-01T11:59:43.866Z,19.56
2022-09-01T12:00:45.540Z,19.56
2022-09-01T12:01:47.287Z,19.58
2022-09-01T12:02:52.173Z,19.59
2022-09-01T12:03:54.303Z,19.59
2022-09-01T12:04:57.148Z,19.60
2022-09-01T12:06:04.008Z,19.63
2022-09-01T12:07:11.642Z,19.64
2022-09-01T12:08:18.331Z,19.65
2022-09-01T12:09:44.034Z,19.66
2022-09-01T12:10:47.066Z,19.70
2022-09-01T12:11:49.026Z,19.73
2022-09-01T12:13:02.523Z,19.77
2022-09-01T12:14:11.444Z,19.80
2022-09-01T12:15:25.936Z,19.83
2022-09-01T12:16:29.965Z,19.84
2022-09-01T12:17:31.660Z,19.84
2022-09-01T12:18:39.664Z,19.82
2022-09-01T12:19:41.293Z,19.81
2022-09-01T12:20:43.209Z,19.77
2022-09-01T12:21:59.845Z,19.76
2022-09-01T12:23:03.588Z,19.84
2022-09-01T12:24:21.799Z,19.95
2022-09-01T12:25:29.209Z,20.15
2022-09-01T12:26:31.001Z,20.27
2022-09-01T12:27:33.634Z,20.32
2022-09-01T12:28:36.181Z,20.36
2022-09-01T12:29:38.875Z,20.45
2022-09-01T12:30:44.703Z,20.59
2022-09-01T12:31:52.471Z,20.77
2022-09-01T12:34:32.953Z,21.18
2022-09-01T12:35:34.595Z,21.38
2022-09-01T12:36:37.195Z,21.53
2022-09-01T12:37:38.945Z,21.67
2022-09-01T12:38:40.680Z,21.79
2022-09-01T12:39:49.007Z,21.92
2022-09-01T12:40:54.453Z,22.05
2022-09-01T12:42:07.343Z,22.16
2022-09-01T12:43:09.020Z,22.33
2022-09-01T12:44:31.433Z,22.48
2022-09-01T12:45:45.678Z,22.72
2022-09-01T12:46:47.478Z,22.94
2022-09-01T12:47:50.642Z,23.11
2022-09-01T12:48:52.634Z,23.26
2022-09-01T12:49:55.686Z,23.41
2022-09-01T12:51:04.745Z,23.58
2022-09-01T12:52:28.168Z,23.74
2022-09-01T12:53:36.741Z,23.90
2022-09-01T12:54:39.714Z,23.94
2022-09-01T12:56:17.070Z,23.93
2022-09-01T12:57:35.453Z,23.87
2022-09-01T12:58:37.209Z,23.78
2022-09-01T12:59:38.898Z,23.69
2022-09-01T13:00:58.440Z,23.58
2022-09-01T13:02:26.994Z,23.43
2022-09-01T13:03:30.708Z,23.25
2022-09-01T13:04:34.388Z,23.08
2022-09-01T13:06:03.796Z,22.93
2022-09-01T13:07:07.693Z,22.69
2022-09-01T13:08:14.676Z,22.49
2022-09-01T13:09:16.638Z,22.29
2022-09-01T13:10:18.674Z,22.13
2022-09-01T13:11:20.750Z,22.01
2022-09-01T13:12:22.412Z,21.89
2022-09-01T13:13:26.866Z,21.76
2022-09-01T13:14:29.870Z,21.63
2022-09-01T13:15:32.638Z,21.53
2022-09-01T13:16:35.623Z,21.40
2022-09-01T13:17:38.401Z,21.27
2022-09-01T13:20:05.742Z,20.97
2022-09-01T13:21:07.942Z,20.84
2022-09-01T13:22:10.459Z,20.76
2022-09-01T13:23:12.830Z,20.77
2022-09-01T13:24:14.751Z,20.80
2022-09-01T13:25:20.267Z,20.88
2022-09-01T13:26:22.568Z,21.02
2022-09-01T13:27:24.381Z,21.17
2022-09-01T13:28:27.011Z,21.31
2022-09-01T13:29:28.750Z,21.46
2022-09-01T13:30:30.470Z,21.61
2022-09-01T13:31:32.659Z,21.78
2022-09-01T13:32:34.944Z,21.94
2022-09-01T13:34:09.300Z,22.09
2022-09-01T13:34:58.644Z,22.29
2022-09-01T13:36:42.816Z,22.44
2022-09-01T13:37:24.379Z,22.62
2022-09-01T13:38:26.168Z,22.77
2022-09-01T13:39:27.845Z,22.93
2022-09-01T13:40:31.065Z,23.09
2022-09-01T13:41:32.813Z,23.27
2022-09-01T13:42:34.811Z,23.47
2022-09-01T13:43:37.469Z,23.65
2022-09-01T13:44:42.545Z,23.83
2022-09-01T13:45:45.233Z,23.96
2022-09-01T13:48:17.449Z,24.27
2022-09-01T13:52:04.045Z,24.62
2022-09-01T13:53:06.662Z,24.69
2022-09-01T13:54:08.382Z,24.77
2022-09-01T13:55:14.197Z,24.79
2022-09-01T13:56:15.854Z,24.75
2022-09-01T13:57:17.854Z,24.72
2022-09-01T13:58:20.383Z,24.71
2022-09-01T13:59:22.589Z,24.74
2022-09-01T14:00:29.318Z,24.79
2022-09-01T14:01:31.028Z,24.84
2022-09-01T14:02:32.696Z,24.83
2022-09-01T14:03:34.445Z,24.79
2022-09-01T14:04:36.315Z,24.80
2022-09-01T14:05:42.291Z,24.84
2022-09-01T14:06:44.838Z,24.89
2022-09-01T14:07:48.838Z,24.91
2022-09-01T14:08:50.529Z,24.88
2022-09-01T14:09:52.177Z,24.80
2022-09-01T14:10:54.354Z,24.70
2022-09-01T14:11:57.055Z,24.60
2022-09-01T14:13:00.342Z,24.48
2022-09-01T14:14:02.517Z,24.32
2022-09-01T14:15:16.621Z,24.17
2022-09-01T14:16:19.720Z,23.95
2022-09-01T14:17:21.472Z,23.76
2022-09-01T14:18:23.232Z,23.57
2022-09-01T14:19:24.911Z,23.38
2022-09-01T14:20:36.072Z,23.21
2022-09-01T14:21:39.424Z,23.02
2022-09-01T14:22:41.594Z,22.86
2022-09-01T14:23:45.796Z,22.70
2022-09-01T14:24:47.859Z,22.52
2022-09-01T14:25:52.654Z,22.34
2022-09-01T14:26:54.319Z,22.17
2022-09-01T14:27:57.178Z,22.01
2022-09-01T14:29:02.543Z,21.84
2022-09-01T14:30:09.107Z,21.68
2022-09-01T14:31:12.481Z,21.51
2022-09-01T14:32:14.144Z,21.36
2022-09-01T14:33:16.931Z,21.23
2022-09-01T14:34:18.982Z,21.08
2022-09-01T14:35:24.813Z,20.95
2022-09-01T14:36:27.020Z,20.81
2022-09-01T14:37:28.794Z,20.68
2022-09-01T14:38:32.131Z,20.57
2022-09-01T14:39:34.137Z,20.46
2022-09-01T14:40:38.074Z,20.35
2022-09-01T14:41:39.824Z,20.24
2022-09-01T14:42:48.990Z,20.14
2022-09-01T14:43:59.749Z,20.05
2022-09-01T14:45:05.028Z,19.95
2022-09-01T14:46:10.811Z,19.87
2022-09-01T14:47:19.137Z,19.80
2022-09-01T14:48:21.974Z,19.72
2022-09-01T14:49:24.301Z,19.66
2022-09-01T14:50:29.039Z,19.61
2022-09-01T14:52:56.350Z,19.52
2022-09-01T14:53:58.190Z,19.49
2022-09-01T14:54:59.919Z,19.46
2022-09-01T14:56:03.076Z,19.43
2022-09-01T14:58:29.662Z,19.33
2022-09-01T14:59:32.150Z,19.31